Time;durP1;ratioP1;P1;durP2;ratioP2;P2;SDS_P1;SDS_P2;PMS_P1;PMS_P2;Temp;Humidity;BMP_temperature;BMP_pressure;BME280_temperature;BME280_humidity;BME280_pressure;Samples;Min_cycle;Max_cycle;Signal;HPM_P1;HPM_P2
2021/08/11 00:01:55;;;;;;;4.63;3.03;;;;;;;16.18;75.91;100838.94;5074621;28;20039;-77
2021/08/11 00:04:41;;;;;;;5.35;3.20;;;;;;;16.12;76.02;100837.44;5077520;28;20039;-77
2021/08/11 00:07:27;;;;;;;5.22;3.08;;;;;;;16.05;76.10;100831.47;5082605;28;20090;-77
2021/08/11 00:10:12;;;;;;;6.85;3.47;;;;;;;16.01;76.05;100844.47;5077289;28;20023;-78
2021/08/11 00:12:58;;;;;;;4.80;3.33;;;;;;;15.92;76.20;100826.81;5082723;28;20092;-77
2021/08/11 00:15:44;;;;;;;5.22;3.45;;;;;;;15.92;76.30;100822.03;5090359;28;20043;-78
2021/08/11 00:18:30;;;;;;;5.68;3.22;;;;;;;15.84;76.40;100823.63;5093262;28;20031;-77
2021/08/11 00:21:16;;;;;;;4.70;3.22;;;;;;;15.79;76.37;100826.56;5084681;28;20058;-77
2021/08/11 00:24:02;;;;;;;5.93;3.30;;;;;;;15.74;76.45;100834.28;5092087;28;20036;-77
2021/08/11 00:26:47;;;;;;;6.22;3.40;;;;;;;15.69;76.54;100835.25;5086711;28;20095;-77
2021/08/11 00:29:33;;;;;;;6.82;3.53;;;;;;;15.69;76.64;100842.84;5071081;28;20040;-77
2021/08/11 00:32:19;;;;;;;5.72;3.25;;;;;;;15.60;76.85;100842.72;5094610;27;20302;-78
2021/08/11 00:35:05;;;;;;;5.53;3.10;;;;;;;15.55;76.90;100838.09;5098208;27;20067;-77
2021/08/11 00:37:51;;;;;;;6.13;3.28;;;;;;;15.48;76.89;100842.50;5077103;28;20089;-77
2021/08/11 00:40:37;;;;;;;4.07;3.28;;;;;;;15.42;76.75;100848.22;5061243;28;20051;-76
2021/08/11 00:43:23;;;;;;;5.60;3.03;;;;;;;15.40;77.33;100844.91;5074788;28;20496;-77
2021/08/11 00:46:09;;;;;;;5.80;3.42;;;;;;;15.34;77.41;100840.59;5088570;28;20042;-78
2021/08/11 00:48:55;;;;;;;8.02;3.25;;;;;;;15.31;77.27;100840.41;5083402;28;20036;-78
2021/08/11 00:51:41;;;;;;;5.25;3.40;;;;;;;15.28;77.31;100838.25;5076437;28;20034;-78
2021/08/11 00:54:27;;;;;;;6.30;3.42;;;;;;;15.21;77.47;100835.91;5073292;28;20087;-77
2021/08/11 00:57:13;;;;;;;6.32;3.53;;;;;;;15.19;77.31;100838.19;5087959;28;20039;-77
2021/08/11 01:00:00;;;;;;;7.72;3.40;;;;;;;15.16;77.65;100836.03;5081396;28;20051;-77
2021/08/11 01:02:46;;;;;;;4.90;3.10;;;;;;;15.12;77.33;100827.41;5086490;27;20037;-77
2021/08/11 01:05:32;;;;;;;5.57;3.45;;;;;;;15.08;77.60;100825.59;5086512;28;20036;-77
2021/08/11 01:08:18;;;;;;;4.22;3.00;;;;;;;15.04;77.54;100819.78;5089034;28;20036;-77
2021/08/11 01:11:04;;;;;;;3.67;2.95;;;;;;;15.00;77.72;100829.13;5097135;28;20103;-77
2021/08/11 01:13:50;;;;;;;5.00;3.15;;;;;;;14.98;77.64;100830.25;5113724;28;20036;-77
2021/08/11 01:16:36;;;;;;;7.68;3.38;;;;;;;14.93;77.75;100822.03;5100896;28;20471;-77
2021/08/11 01:19:21;;;;;;;5.03;3.67;;;;;;;14.92;77.63;100828.72;5096467;27;20605;-77
2021/08/11 01:22:15;;;;;;;5.85;3.58;;;;;;;14.90;77.72;100824.59;5069042;28;20036;-77
2021/08/11 01:25:14;;;;;;;6.35;3.55;;;;;;;14.85;77.83;100817.16;5087305;28;20032;-78
2021/08/11 01:28:28;;;;;;;5.38;3.17;;;;;;;14.82;77.94;100829.00;5071628;28;20035;-78
2021/08/11 01:31:15;;;;;;;7.90;3.65;;;;;;;14.77;77.80;100820.72;5115748;28;20044;-77
2021/08/11 01:34:04;;;;;;;6.00;3.58;;;;;;;14.70;77.74;100823.91;5088786;28;20040;-77
2021/08/11 01:36:55;;;;;;;5.20;2.90;;;;;;;14.69;77.70;100822.28;5092403;28;20043;-77
2021/08/11 01:39:47;;;;;;;5.22;3.28;;;;;;;14.68;77.68;100823.44;5061679;28;20060;-77
2021/08/11 01:42:38;;;;;;;6.80;3.70;;;;;;;14.62;78.19;100826.63;5075120;28;20027;-77
2021/08/11 01:45:34;;;;;;;5.90;3.50;;;;;;;14.59;78.20;100825.28;5085894;28;20047;-77
2021/08/11 01:48:27;;;;;;;7.30;3.88;;;;;;;14.60;77.83;100823.31;5078923;28;20036;-78
2021/08/11 01:51:13;;;;;;;5.13;3.95;;;;;;;14.54;78.11;100822.59;5081869;28;20091;-77
2021/08/11 01:53:59;;;;;;;4.28;3.63;;;;;;;14.51;78.41;100832.44;5112876;28;20103;-78
2021/08/11 01:56:45;;;;;;;7.60;3.58;;;;;;;14.47;78.15;100830.56;5086609;28;20039;-77
2021/08/11 01:59:31;;;;;;;5.05;3.10;;;;;;;14.45;78.26;100819.69;5074968;28;20078;-77
2021/08/11 02:02:17;;;;;;;4.00;3.33;;;;;;;14.44;78.05;100817.22;5064339;28;20462;-77
2021/08/11 02:05:10;;;;;;;6.10;3.50;;;;;;;14.41;78.24;100815.06;5084632;28;20568;-78
2021/08/11 02:07:59;;;;;;;6.78;3.58;;;;;;;14.34;78.25;100812.66;5075553;28;20103;-77
2021/08/11 02:10:45;;;;;;;5.13;3.67;;;;;;;14.35;78.26;100817.13;5082134;28;20042;-78
2021/08/11 02:13:31;;;;;;;6.65;3.72;;;;;;;14.33;78.26;100813.00;5097906;28;20505;-78
2021/08/11 02:16:18;;;;;;;4.78;3.58;;;;;;;14.28;78.57;100809.16;5070191;28;20117;-77
2021/08/11 02:19:04;;;;;;;6.10;3.55;;;;;;;14.22;78.72;100804.00;5086109;28;20054;-77
2021/08/11 02:21:49;;;;;;;5.45;3.47;;;;;;;14.18;78.68;100809.41;5084203;28;20035;-78
2021/08/11 02:24:36;;;;;;;6.68;3.33;;;;;;;14.16;78.45;100805.25;5100808;28;20038;-77
2021/08/11 02:27:23;;;;;;;5.30;3.35;;;;;;;14.13;78.32;100803.91;5102683;28;20066;-77
2021/08/11 02:30:13;;;;;;;6.07;3.80;;;;;;;14.12;78.62;100795.81;5079359;28;20054;-77
2021/08/11 02:33:11;;;;;;;5.25;3.70;;;;;;;14.12;78.71;100798.63;5088232;28;20039;-77
2021/08/11 02:36:00;;;;;;;5.22;3.78;;;;;;;14.07;78.60;100800.41;5078352;28;20074;-77
2021/08/11 02:38:46;;;;;;;8.77;3.55;;;;;;;14.05;78.42;100805.44;5094004;28;20032;-77
2021/08/11 02:41:35;;;;;;;5.80;3.90;;;;;;;14.04;78.53;100798.22;5076584;28;20131;-77
2021/08/11 02:44:39;;;;;;;4.93;3.38;;;;;;;14.02;78.58;100794.91;5073239;28;20430;-77
2021/08/11 02:47:25;;;;;;;;;;;;;;;13.98;78.52;100793.03;5090112;28;20039;-77
2021/08/11 02:50:10;;;;;;;6.50;3.40;;;;;;;13.95;78.68;100802.84;5092285;28;19922;-77
2021/08/11 02:52:56;;;;;;;4.80;3.25;;;;;;;13.94;78.89;100806.78;5083568;28;20084;-77
2021/08/11 02:55:42;;;;;;;6.65;3.83;;;;;;;13.92;78.96;100800.69;5080820;28;20035;-77
2021/08/11 02:58:28;;;;;;;6.30;4.00;;;;;;;13.88;78.81;100801.63;5075190;28;20036;-77
2021/08/11 03:01:14;;;;;;;6.70;3.53;;;;;;;13.85;79.13;100794.69;5090328;27;20081;-77
2021/08/11 03:03:59;;;;;;;4.88;3.25;;;;;;;13.80;79.11;100786.44;5087522;28;20032;-77
2021/08/11 03:06:45;;;;;;;6.88;3.80;;;;;;;13.80;79.06;100792.00;5072335;28;20104;-77
2021/08/11 03:09:31;;;;;;;6.15;3.78;;;;;;;13.80;78.98;100792.00;5072752;28;20510;-77
2021/08/11 03:12:17;;;;;;;8.00;4.20;;;;;;;13.77;79.27;100795.41;5089170;28;20552;-77
2021/08/11 03:15:05;;;;;;;7.28;4.18;;;;;;;13.73;79.04;100803.56;5072661;28;20498;-77
2021/08/11 03:17:51;;;;;;;7.40;3.88;;;;;;;13.72;79.07;100801.09;5083173;28;20833;-77
2021/08/11 03:20:39;;;;;;;6.45;3.63;;;;;;;13.64;79.23;100795.06;5098511;28;20031;-78
2021/08/11 03:23:25;;;;;;;5.80;3.88;;;;;;;13.60;79.41;100807.19;5117577;28;20036;-77
2021/08/11 03:26:11;;;;;;;4.95;3.22;;;;;;;13.61;79.29;100806.03;5087382;28;20376;-77
2021/08/11 03:29:01;;;;;;;5.30;3.67;;;;;;;13.53;78.98;100815.09;5086549;27;20042;-77
2021/08/11 03:31:46;;;;;;;6.00;3.38;;;;;;;13.51;79.30;100812.63;5076046;28;20071;-77
2021/08/11 03:34:32;;;;;;;3.85;3.38;;;;;;;13.50;79.43;100802.59;5075470;28;20039;-77
2021/08/11 03:37:18;;;;;;;5.65;3.03;;;;;;;13.45;79.20;100808.25;5074553;28;20525;-78
2021/08/11 03:40:04;;;;;;;4.55;3.30;;;;;;;13.41;79.40;100810.84;5084852;28;20035;-77
2021/08/11 03:42:50;;;;;;;5.65;3.30;;;;;;;13.37;79.40;100804.22;5079399;28;20511;-77
2021/08/11 03:45:36;;;;;;;7.85;3.95;;;;;;;13.37;79.51;100812.59;5075277;28;20091;-78
2021/08/11 03:48:22;;;;;;;5.88;3.97;;;;;;;13.37;79.12;100817.31;5085658;28;20032;-77
2021/08/11 03:51:08;;;;;;;3.53;2.97;;;;;;;13.32;79.23;100820.22;5077473;28;20443;-77
2021/08/11 03:53:54;;;;;;;4.28;3.08;;;;;;;13.27;79.41;100812.78;5085016;27;20508;-78
2021/08/11 03:56:40;;;;;;;4.10;3.17;;;;;;;13.25;79.62;100814.16;5102640;28;20042;-78
2021/08/11 03:59:26;;;;;;;6.20;4.13;;;;;;;13.19;79.86;100817.03;5075860;28;20035;-78
2021/08/11 04:02:11;;;;;;;4.25;3.35;;;;;;;13.19;79.57;100814.25;5082266;28;20043;-78
2021/08/11 04:04:57;;;;;;;4.75;3.00;;;;;;;13.17;79.76;100819.28;5082938;28;20032;-78
2021/08/11 04:07:43;;;;;;;5.57;3.45;;;;;;;13.13;79.60;100829.41;5072622;28;20475;-77
2021/08/11 04:10:29;;;;;;;5.63;3.55;;;;;;;13.12;79.52;100835.28;5098016;28;20028;-77
2021/08/11 04:13:15;;;;;;;4.80;3.40;;;;;;;13.11;79.67;100828.06;5074565;28;20618;-78
2021/08/11 04:16:01;;;;;;;4.93;3.25;;;;;;;13.07;79.63;100822.28;5082413;28;20471;-78
2021/08/11 04:18:47;;;;;;;3.92;3.25;;;;;;;13.09;79.45;100831.16;5076973;28;20028;-78
2021/08/11 04:21:32;;;;;;;5.47;3.47;;;;;;;13.03;79.56;100837.94;5071173;28;20024;-77
2021/08/11 04:24:18;;;;;;;5.57;3.92;;;;;;;13.02;79.68;100839.06;5086413;28;20035;-77
2021/08/11 04:27:04;;;;;;;5.70;3.65;;;;;;;12.98;79.96;100840.78;5083852;28;20081;-77
2021/08/11 04:29:50;;;;;;;5.80;3.60;;;;;;;12.92;79.85;100833.66;5101962;28;20036;-78
2021/08/11 04:32:36;;;;;;;4.00;3.30;;;;;;;12.92;80.16;100825.28;5091392;28;20157;-77
2021/08/11 04:35:21;;;;;;;5.38;3.55;;;;;;;12.90;79.92;100831.19;5061963;28;20039;-78
2021/08/11 04:38:07;;;;;;;5.28;3.10;;;;;;;12.90;79.98;100830.34;5079675;28;20094;-77
2021/08/11 04:40:53;;;;;;;8.25;4.25;;;;;;;12.87;80.04;100833.72;5088968;28;20035;-77
2021/08/11 04:43:39;;;;;;;4.80;3.50;;;;;;;12.86;80.02;100835.69;5086142;28;20028;-77
2021/08/11 04:46:25;;;;;;;6.53;3.80;;;;;;;12.86;79.97;100834.84;5065905;28;20047;-77
2021/08/11 04:49:11;;;;;;;5.05;3.55;;;;;;;12.86;79.82;100834.84;5106464;28;20089;-77
2021/08/11 04:51:57;;;;;;;4.50;3.40;;;;;;;12.83;79.79;100836.28;5097689;28;20048;-77
2021/08/11 04:54:42;;;;;;;4.93;3.42;;;;;;;12.83;80.00;100835.47;5085233;28;20051;-76
2021/08/11 04:57:28;;;;;;;8.05;3.97;;;;;;;12.79;80.10;100846.41;5083185;28;20036;-77
2021/08/11 05:00:14;;;;;;;6.30;3.70;;;;;;;12.75;80.17;100843.34;5096810;28;20031;-76
2021/08/11 05:03:00;;;;;;;5.07;4.03;;;;;;;12.77;80.17;100842.25;5081334;28;20032;-77
2021/08/11 05:05:46;;;;;;;6.68;3.67;;;;;;;12.74;80.00;100849.25;5105850;28;20052;-76
2021/08/11 05:08:32;;;;;;;5.07;3.55;;;;;;;12.73;80.32;100856.78;5086264;28;20400;-76
2021/08/11 05:11:18;;;;;;;5.45;3.65;;;;;;;12.72;80.25;100852.31;5074820;28;20039;-78
2021/08/11 05:14:04;;;;;;;5.00;3.65;;;;;;;12.71;80.39;100845.09;5081098;28;20606;-76
2021/08/11 05:16:49;;;;;;;4.50;3.30;;;;;;;12.70;80.41;100860.19;5095320;28;20028;-76
2021/08/11 05:19:36;;;;;;;5.68;4.00;;;;;;;12.73;80.99;100854.00;5100764;28;20068;-76
2021/08/11 05:22:23;;;;;;;5.90;3.70;;;;;;;12.73;81.32;100856.78;5073092;28;20028;-77
2021/08/11 05:25:09;;;;;;;4.45;3.40;;;;;;;12.79;81.22;100849.19;5081623;28;20397;-76
2021/08/11 05:27:55;;;;;;;7.13;3.20;;;;;;;12.82;81.58;100862.50;5101951;28;20114;-76
2021/08/11 05:30:41;;;;;;;5.20;3.60;;;;;;;12.88;82.05;100866.06;5058572;28;20380;-77
2021/08/11 05:33:27;;;;;;;5.47;3.80;;;;;;;12.94;82.07;100864.84;5060303;28;20036;-76
2021/08/11 05:36:13;;;;;;;6.03;3.28;;;;;;;13.01;83.05;100865.31;5070120;28;20028;-76
2021/08/11 05:38:59;;;;;;;4.88;4.07;;;;;;;13.12;83.36;100866.81;5097389;28;20032;-76
2021/08/11 05:41:45;;;;;;;5.65;4.10;;;;;;;13.22;85.87;100870.56;5089034;28;20042;-76
2021/08/11 05:44:32;;;;;;;7.72;4.38;;;;;;;13.34;86.00;100876.53;5100181;28;20107;-76
2021/08/11 05:47:17;;;;;;;6.53;4.70;;;;;;;13.47;86.63;100878.53;5070515;28;20115;-77
2021/08/11 05:50:04;;;;;;;7.13;4.13;;;;;;;13.61;83.53;100885.00;5073850;28;20031;-77
2021/08/11 05:52:50;;;;;;;6.47;3.78;;;;;;;13.76;83.24;100881.13;5063209;28;20027;-77
2021/08/11 05:55:35;;;;;;;4.63;3.40;;;;;;;13.92;81.65;100875.25;5070714;28;20056;-77
2021/08/11 05:58:21;;;;;;;5.35;3.35;;;;;;;14.06;80.90;100879.72;5088808;28;20048;-76
2021/08/11 06:01:07;;;;;;;7.53;3.22;;;;;;;14.24;80.28;100879.94;5067602;28;20050;-76
2021/08/11 06:04:02;;;;;;;5.70;3.05;;;;;;;14.39;79.89;100876.84;5056391;28;20511;-77
2021/08/11 06:06:49;;;;;;;5.68;3.05;;;;;;;14.56;79.83;100875.41;5080318;28;20109;-77
2021/08/11 06:09:35;;;;;;;7.75;3.28;;;;;;;14.71;79.44;100884.31;5059012;28;20127;-77
2021/08/11 06:12:21;;;;;;;3.38;2.92;;;;;;;14.87;78.79;100876.38;5069294;28;20059;-76
2021/08/11 06:15:07;;;;;;;4.43;3.40;;;;;;;15.04;79.04;100875.72;5102533;28;21488;-76
2021/08/11 06:17:53;;;;;;;3.95;3.33;;;;;;;15.22;78.63;100882.31;5057320;28;20036;-76
2021/08/11 06:20:39;;;;;;;5.85;3.63;;;;;;;15.38;78.47;100885.56;5079000;28;20044;-76
2021/08/11 06:23:25;;;;;;;6.00;3.70;;;;;;;15.54;79.04;100872.81;5067758;28;20036;-76
2021/08/11 06:26:10;;;;;;;7.18;4.40;;;;;;;15.73;79.83;100869.84;5064769;28;20492;-76
2021/08/11 06:28:56;;;;;;;4.28;3.38;;;;;;;15.92;77.75;100868.81;5080482;28;20058;-76
2021/08/11 06:31:42;;;;;;;5.05;3.58;;;;;;;16.10;78.46;100873.34;5064066;28;20036;-76
2021/08/11 06:34:28;;;;;;;5.65;3.58;;;;;;;16.29;76.97;100876.72;5094738;28;20028;-76
2021/08/11 06:37:14;;;;;;;4.28;3.33;;;;;;;16.48;76.31;100862.44;5083271;28;20060;-76
2021/08/11 06:39:59;;;;;;;5.55;3.05;;;;;;;16.69;75.88;100867.47;5083179;28;20032;-76
2021/08/11 06:42:45;;;;;;;5.18;3.30;;;;;;;16.89;75.76;100866.03;5069050;28;20032;-76
2021/08/11 06:45:31;;;;;;;7.22;3.55;;;;;;;17.08;75.57;100868.53;5073526;28;20033;-77
2021/08/11 06:48:17;;;;;;;13.07;5.97;;;;;;;17.20;78.13;100858.28;5081840;28;20036;-76
2021/08/11 06:51:04;;;;;;;6.05;4.75;;;;;;;17.37;77.05;100865.06;5086497;28;20096;-77
2021/08/11 06:53:50;;;;;;;7.82;5.30;;;;;;;17.53;77.79;100869.00;5082627;28;20047;-76
2021/08/11 06:56:36;;;;;;;7.82;4.13;;;;;;;17.75;76.72;100869.97;5078577;28;20051;-76
2021/08/11 06:59:22;;;;;;;7.40;5.63;;;;;;;17.92;77.37;100881.19;5076624;28;20377;-76
2021/08/11 07:02:08;;;;;;;6.13;5.07;;;;;;;18.09;76.61;100869.06;5070291;28;20024;-76
2021/08/11 07:04:54;;;;;;;7.63;5.75;;;;;;;18.28;76.69;100874.28;5098691;28;20498;-77
2021/08/11 07:07:40;;;;;;;6.00;4.57;;;;;;;18.44;75.74;100875.38;5087607;28;20032;-77
2021/08/11 07:10:25;;;;;;;6.10;4.03;;;;;;;18.65;74.18;100866.97;5081041;28;20758;-77
2021/08/11 07:13:11;;;;;;;6.65;5.10;;;;;;;18.80;74.25;100874.00;5057660;28;20168;-78
2021/08/11 07:15:57;;;;;;;5.10;4.45;;;;;;;19.02;74.15;100866.41;5083307;28;20036;-77
2021/08/11 07:18:43;;;;;;;5.63;4.18;;;;;;;19.20;72.64;100865.94;5091809;28;20046;-77
2021/08/11 07:21:29;;;;;;;6.63;4.38;;;;;;;19.33;72.61;100871.63;5064967;28;20074;-77
2021/08/11 07:24:14;;;;;;;11.68;5.30;;;;;;;19.43;73.02;100871.22;5096192;28;20511;-76
2021/08/11 07:27:00;;;;;;;7.60;5.18;;;;;;;19.58;72.80;100872.56;5083303;28;20557;-77
2021/08/11 07:29:46;;;;;;;9.60;4.38;;;;;;;19.77;72.03;100870.06;5097490;28;20519;-76
2021/08/11 07:32:32;;;;;;;8.75;4.55;;;;;;;19.99;71.00;100868.03;5083337;28;20448;-77
2021/08/11 07:35:18;;;;;;;5.60;3.42;;;;;;;20.12;70.32;100864.06;5065545;28;20139;-76
2021/08/11 07:38:04;;;;;;;6.07;4.28;;;;;;;20.29;70.96;100866.66;5082104;28;20032;-77
2021/08/11 07:40:50;;;;;;;4.88;3.38;;;;;;;20.47;70.44;100853.13;5068987;28;20042;-77
2021/08/11 07:43:36;;;;;;;5.18;3.75;;;;;;;20.54;70.12;100858.22;5083112;28;20071;-77
2021/08/11 07:46:24;;;;;;;6.53;3.60;;;;;;;20.67;70.57;100856.19;5077647;28;20040;-76
2021/08/11 07:49:10;;;;;;;6.85;3.40;;;;;;;20.90;69.27;100853.72;5092395;28;20044;-77
2021/08/11 07:51:55;;;;;;;6.88;3.38;;;;;;;21.00;69.51;100858.03;5097417;28;20500;-77
2021/08/11 07:54:41;;;;;;;6.78;3.45;;;;;;;21.10;68.44;100858.38;5098199;28;20540;-76
2021/08/11 07:57:27;;;;;;;4.45;3.20;;;;;;;21.33;67.54;100864.28;5112247;28;20126;-76
2021/08/11 08:00:13;;;;;;;4.43;3.50;;;;;;;21.38;67.99;100863.25;5085947;28;20106;-77
2021/08/11 08:03:00;;;;;;;6.95;3.35;;;;;;;21.54;67.07;100869.78;5099883;28;20038;-77
2021/08/11 08:05:46;;;;;;;5.88;3.53;;;;;;;21.68;66.58;100863.72;5111459;28;20502;-77
2021/08/11 08:08:32;;;;;;;5.05;3.33;;;;;;;21.79;66.09;100861.19;5090938;28;20110;-77
2021/08/11 08:11:18;;;;;;;5.60;3.50;;;;;;;22.02;65.90;100859.38;5093823;28;20023;-76
2021/08/11 08:14:04;;;;;;;5.28;3.30;;;;;;;22.18;65.52;100845.28;5114769;28;20050;-76
2021/08/11 08:16:50;;;;;;;8.63;3.65;;;;;;;22.32;66.13;100849.69;5085374;28;20039;-76
2021/08/11 08:19:35;;;;;;;4.45;2.90;;;;;;;22.53;65.10;100851.00;5099112;28;20042;-76
2021/08/11 08:22:21;;;;;;;5.20;2.63;;;;;;;22.72;65.15;100840.94;5116309;27;20023;-76
2021/08/11 08:25:07;;;;;;;5.05;2.80;;;;;;;22.79;64.65;100846.78;5100317;28;20552;-76
2021/08/11 08:27:53;;;;;;;5.25;3.08;;;;;;;22.91;65.37;100843.81;5096819;28;20032;-76
2021/08/11 08:30:40;;;;;;;5.03;3.20;;;;;;;23.08;63.17;100839.75;5087960;28;20035;-76
2021/08/11 08:33:25;;;;;;;7.20;3.47;;;;;;;23.27;63.15;100836.13;5103689;28;20763;-76
2021/08/11 08:36:11;;;;;;;4.95;3.00;;;;;;;23.42;63.58;100840.06;5110115;28;20059;-76
2021/08/11 08:38:57;;;;;;;5.97;3.55;;;;;;;23.63;62.95;100834.00;5090777;28;20032;-77
2021/08/11 08:41:45;;;;;;;6.28;3.50;;;;;;;23.75;62.20;100833.84;5095223;28;20046;-77
2021/08/11 08:44:30;;;;;;;6.88;3.10;;;;;;;23.93;61.49;100841.88;5092098;28;20048;-70
2021/08/11 08:47:17;;;;;;;7.28;3.60;;;;;;;24.05;61.25;100844.53;5087556;28;20123;-69
2021/08/11 08:50:05;;;;;;;4.40;2.60;;;;;;;24.08;60.66;100836.09;5105581;28;20040;-69
2021/08/11 08:52:50;;;;;;;5.05;2.78;;;;;;;23.98;61.42;100845.22;5083490;27;20047;-69
2021/08/11 08:55:36;;;;;;;3.60;2.75;;;;;;;24.00;61.75;100842.00;5084623;28;20044;-69
2021/08/11 08:58:22;;;;;;;5.10;2.50;;;;;;;24.05;60.98;100841.69;5075428;28;20646;-69
2021/08/11 09:01:08;;;;;;;7.28;2.92;;;;;;;24.05;61.19;100841.69;5089804;27;20055;-69
2021/08/11 09:03:54;;;;;;;5.93;2.65;;;;;;;24.09;61.08;100842.56;5072978;28;20047;-70
2021/08/11 09:06:40;;;;;;;5.53;2.88;;;;;;;24.06;61.40;100840.50;5063002;28;20032;-69
2021/08/11 09:09:34;;;;;;;5.85;3.20;;;;;;;24.11;61.34;100837.34;5092312;27;20493;-69
2021/08/11 09:12:20;;;;;;;5.38;3.00;;;;;;;24.13;61.56;100837.78;5064632;28;20047;-69
2021/08/11 09:15:06;;;;;;;5.40;3.13;;;;;;;24.16;61.00;100839.88;5081281;28;20034;-69
2021/08/11 09:17:52;;;;;;;4.25;2.70;;;;;;;24.20;61.39;100832.22;5075372;28;20039;-69
2021/08/11 09:20:38;;;;;;;4.25;2.78;;;;;;;24.28;60.83;100841.69;5084526;28;20055;-68
2021/08/11 09:23:33;;;;;;;4.57;2.72;;;;;;;24.33;61.21;100837.72;5087950;28;20028;-70
2021/08/11 09:26:19;;;;;;;7.50;3.60;;;;;;;24.42;61.45;100833.41;5095754;28;20110;-71
2021/08/11 09:29:06;;;;;;;6.53;3.10;;;;;;;24.55;61.36;100833.25;5100678;28;20031;-74
2021/08/11 09:31:51;;;;;;;5.10;2.65;;;;;;;24.84;61.84;100835.28;5072139;28;20063;-71
2021/08/11 09:34:43;;;;;;;3.58;2.55;;;;;;;25.10;61.10;100831.59;5088502;28;20071;-71
2021/08/11 09:37:39;;;;;;;5.25;3.00;;;;;;;25.29;59.73;100833.47;5087609;28;20035;-71
2021/08/11 09:40:29;;;;;;;2.83;2.10;;;;;;;25.58;59.35;100834.66;5079540;28;20435;-71
2021/08/11 09:43:30;;;;;;;4.50;2.58;;;;;;;25.78;58.83;100838.13;5071762;28;20030;-71
2021/08/11 09:46:28;;;;;;;4.35;2.50;;;;;;;25.93;58.68;100844.78;5073236;28;20071;-73
2021/08/11 09:49:18;;;;;;;5.65;2.50;;;;;;;25.98;58.43;100835.91;5078098;28;20042;-71
2021/08/11 09:52:04;;;;;;;3.63;2.28;;;;;;;26.02;58.24;100833.09;5084463;28;20040;-71
2021/08/11 09:54:57;;;;;;;4.22;2.47;;;;;;;26.13;58.35;100824.66;5063645;28;20048;-72
2021/08/11 09:57:44;;;;;;;6.55;2.67;;;;;;;26.26;57.99;100837.38;5074843;28;20577;-71
2021/08/11 10:00:39;;;;;;;2.65;1.90;;;;;;;26.44;58.34;100841.19;5066938;28;20086;-71
2021/08/11 10:03:25;;;;;;;5.22;2.72;;;;;;;26.63;57.63;100828.72;5093855;28;20024;-71
2021/08/11 10:06:23;;;;;;;3.80;2.65;;;;;;;26.87;57.46;100832.97;5048310;28;20039;-68
2021/08/11 10:09:19;;;;;;;5.32;2.63;;;;;;;27.05;57.12;100835.09;5066285;28;20036;-68
2021/08/11 10:12:05;;;;;;;3.83;2.10;;;;;;;27.29;56.87;100825.88;5046704;28;20039;-69
2021/08/11 10:14:51;;;;;;;5.60;2.90;;;;;;;27.51;54.94;100818.22;5064777;28;20088;-69
2021/08/11 10:17:37;;;;;;;4.57;2.78;;;;;;;27.75;55.03;100816.66;5083312;28;20431;-69
2021/08/11 10:20:23;;;;;;;4.80;2.58;;;;;;;28.08;54.53;100817.53;5065647;28;20032;-68
2021/08/11 10:23:09;;;;;;;5.32;2.88;;;;;;;28.29;53.28;100808.16;5079079;28;20040;-69
2021/08/11 10:25:54;;;;;;;5.60;3.40;;;;;;;28.43;51.77;100816.75;5077903;28;20141;-68
2021/08/11 10:28:42;;;;;;;5.53;2.70;;;;;;;28.52;52.85;100822.03;5093295;28;20036;-69
2021/08/11 10:31:28;;;;;;;4.18;2.72;;;;;;;28.65;53.15;100819.59;5058631;28;20036;-69
2021/08/11 10:34:18;;;;;;;4.88;2.65;;;;;;;28.68;52.45;100813.84;5058610;28;20553;-75
2021/08/11 10:37:04;;;;;;;4.63;2.60;;;;;;;28.73;52.38;100810.59;5072920;28;20032;-75
2021/08/11 10:39:50;;;;;;;5.40;2.80;;;;;;;28.70;51.28;100805.69;5065249;28;20036;-76
2021/08/11 10:42:36;;;;;;;4.75;2.40;;;;;;;28.72;50.75;100811.81;5047855;28;20111;-76
2021/08/11 10:45:23;;;;;;;3.65;2.28;;;;;;;28.74;51.36;100809.34;5078525;28;20032;-76
2021/08/11 10:48:16;;;;;;;3.13;2.50;;;;;;;28.79;51.58;100807.31;5077536;28;20071;-74
2021/08/11 10:51:02;;;;;;;3.65;2.38;;;;;;;28.77;51.24;100812.63;5084991;28;20438;-73
2021/08/11 10:54:04;;;;;;;4.45;2.67;;;;;;;28.66;51.47;100818.34;5087878;28;20167;-73
2021/08/11 10:56:51;;;;;;;4.22;2.80;;;;;;;28.71;51.12;100817.94;5069198;28;20051;-74
2021/08/11 10:59:40;;;;;;;3.47;2.40;;;;;;;28.84;51.16;100819.13;5111750;28;20043;-74
2021/08/11 11:02:41;;;;;;;4.07;2.40;;;;;;;28.94;51.06;100817.47;5105401;28;20108;-74
2021/08/11 11:05:27;;;;;;;2.90;2.40;;;;;;;28.87;51.12;100811.78;5107924;28;20047;-74
2021/08/11 11:08:16;;;;;;;4.13;2.50;;;;;;;28.96;50.96;100820.72;5107387;28;20056;-74
2021/08/11 11:11:31;;;;;;;5.45;2.30;;;;;;;29.00;50.72;100812.94;5113397;28;20038;-74
2021/08/11 11:14:50;;;;;;;4.82;2.40;;;;;;;28.95;50.62;100810.53;5118103;28;20048;-74
2021/08/11 11:17:36;;;;;;;5.82;2.88;;;;;;;28.90;49.85;100806.03;5107344;28;20031;-74
2021/08/11 11:20:22;;;;;;;3.78;2.63;;;;;;;29.01;50.36;100808.88;5074887;28;20036;-73
2021/08/11 11:23:08;;;;;;;3.47;2.40;;;;;;;29.13;50.59;100808.44;5070669;28;20110;-74
2021/08/11 11:26:21;;;;;;;5.72;2.35;;;;;;;29.13;50.55;100813.34;5091484;28;20043;-74
2021/08/11 11:29:08;;;;;;;5.15;2.67;;;;;;;29.04;50.96;100816.66;5100335;28;20063;-74
2021/08/11 11:31:55;;;;;;;4.88;3.10;;;;;;;29.14;50.69;100818.66;5083040;28;20104;-74
2021/08/11 11:34:41;;;;;;;3.90;2.58;;;;;;;29.20;50.74;100806.78;5109300;28;20449;-73
2021/08/11 11:37:27;;;;;;;3.70;2.50;;;;;;;29.21;50.37;100817.00;5076570;28;20500;-74
2021/08/11 11:40:15;;;;;;;3.22;2.67;;;;;;;29.27;50.35;100806.75;5070605;28;20032;-73
2021/08/11 11:43:29;;;;;;;4.68;2.38;;;;;;;29.32;50.48;100806.31;5110751;28;20031;-73
2021/08/11 11:46:45;;;;;;;3.60;2.50;;;;;;;29.36;50.18;100809.97;5113846;27;20032;-87
2021/08/11 11:49:31;;;;;;;5.30;2.75;;;;;;;29.41;50.46;100795.25;5102998;28;20039;-69
2021/08/11 11:52:18;;;;;;;2.97;2.40;;;;;;;29.44;50.37;100793.59;5062933;28;20048;-69
2021/08/11 11:55:04;;;;;;;4.63;2.53;;;;;;;29.46;49.41;100791.13;5081168;28;20081;-69
2021/08/11 11:57:50;;;;;;;5.82;2.90;;;;;;;29.57;49.79;100778.41;5084429;28;20068;-69
2021/08/11 12:00:36;;;;;;;7.13;2.60;;;;;;;29.66;48.91;100780.00;5078611;28;20085;-70
2021/08/11 12:03:22;;;;;;;3.72;2.65;;;;;;;29.79;49.83;100784.00;5090427;27;20078;-72
2021/08/11 12:06:08;;;;;;;6.15;2.47;;;;;;;29.80;49.35;100792.16;5084505;28;20034;-71
2021/08/11 12:08:55;;;;;;;3.30;2.67;;;;;;;29.96;49.31;100783.06;5074199;28;20062;-73
2021/08/11 12:11:41;;;;;;;3.50;2.85;;;;;;;30.11;48.57;100788.66;5073127;28;20036;-72
2021/08/11 12:14:27;;;;;;;4.00;2.97;;;;;;;30.19;47.54;100784.50;5067474;28;20096;-73
2021/08/11 12:17:30;;;;;;;5.30;2.90;;;;;;;30.30;47.74;100788.13;5069513;28;20093;-72
2021/08/11 12:20:29;;;;;;;4.78;2.83;;;;;;;30.35;47.49;100799.13;5075207;28;20034;-72
2021/08/11 12:23:26;;;;;;;3.65;2.80;;;;;;;30.36;47.23;100808.53;5111491;28;20055;-73
2021/08/11 12:26:14;;;;;;;4.18;2.88;;;;;;;30.31;47.24;100801.19;5068796;28;20036;-73
2021/08/11 12:28:59;;;;;;;3.50;2.63;;;;;;;30.35;47.63;100802.00;5076268;28;20039;-73
2021/08/11 12:31:46;;;;;;;4.10;2.78;;;;;;;30.36;47.21;100805.66;5116969;27;20042;-73
2021/08/11 12:34:35;;;;;;;5.13;2.60;;;;;;;30.22;47.07;100810.28;5097425;28;20498;-73
2021/08/11 12:37:21;;;;;;;5.10;2.67;;;;;;;30.27;47.56;100806.16;5112249;28;20031;-73
2021/08/11 12:40:07;;;;;;;4.72;3.00;;;;;;;30.27;47.16;100809.03;5088652;28;20404;-73
2021/08/11 12:42:54;;;;;;;5.43;2.67;;;;;;;30.32;47.26;100814.28;5087790;28;20399;-73
2021/08/11 12:45:52;;;;;;;3.45;2.72;;;;;;;30.38;47.89;100815.47;5113056;28;20118;-73
2021/08/11 12:48:38;;;;;;;3.90;2.83;;;;;;;30.41;47.03;100817.47;5080129;28;20039;-73
2021/08/11 12:51:24;;;;;;;3.63;2.80;;;;;;;30.51;47.54;100815.78;5066981;28;20032;-73
2021/08/11 12:54:10;;;;;;;4.38;2.72;;;;;;;30.52;46.31;100810.84;5083976;28;20032;-73
2021/08/11 12:56:59;;;;;;;4.22;3.08;;;;;;;30.63;47.71;100802.94;5085037;28;20040;-67
2021/08/11 12:59:46;;;;;;;5.03;2.78;;;;;;;30.67;48.88;100804.56;5084049;28;20031;-67